Time;durP1;ratioP1;P1;durP2;ratioP2;P2;SDS_P1;SDS_P2;PMS_P1;PMS_P2;Temp;Humidity;BMP_temperature;BMP_pressure;BME280_temperature;BME280_humidity;BME280_pressure;Samples;Min_cycle;Max_cycle;Signal;HPM_P1;HPM_P2
2021/09/22 00:00:42;;;;;;;17.98;14.23;;;13.30;99.90;;;;;;5109783;28;20064;-36
2021/09/22 00:03:07;;;;;;;18.15;13.82;;;13.20;99.90;;;;;;5111188;28;20444;-38
2021/09/22 00:05:33;;;;;;;18.65;13.75;;;13.20;99.90;;;;;;5109953;28;20027;-37
2021/09/22 00:07:59;;;;;;;18.75;14.40;;;13.20;99.90;;;;;;5110306;28;20122;-35
2021/09/22 00:10:24;;;;;;;17.48;13.68;;;13.20;99.90;;;;;;5109359;28;20063;-38
2021/09/22 00:12:56;;;;;;;16.85;13.57;;;13.20;99.90;;;;;;5110038;28;20052;-38
2021/09/22 00:15:27;;;;;;;20.73;13.63;;;13.10;99.90;;;;;;5109393;28;20539;-37
2021/09/22 00:17:53;;;;;;;17.77;13.20;;;13.10;99.90;;;;;;5110886;28;20495;-36
2021/09/22 00:20:23;;;;;;;19.00;13.73;;;13.10;99.90;;;;;;5110630;28;20027;-41
2021/09/22 00:22:55;;;;;;;18.58;13.43;;;13.10;99.90;;;;;;5111436;28;20027;-36
2021/09/22 00:25:21;;;;;;;17.73;13.00;;;13.00;99.90;;;;;;5110779;28;20027;-38
2021/09/22 00:27:52;;;;;;;16.30;12.05;;;13.00;99.90;;;;;;5111090;28;20114;-34
2021/09/22 00:30:18;;;;;;;18.20;12.57;;;13.00;99.90;;;;;;5109993;28;20474;-36
2021/09/22 00:32:53;;;;;;;16.80;13.27;;;13.00;99.90;;;;;;5110892;28;20030;-37
2021/09/22 00:35:19;;;;;;;17.27;12.93;;;12.90;99.90;;;;;;5110861;28;20115;-38
2021/09/22 00:37:45;;;;;;;15.65;12.38;;;12.90;99.90;;;;;;5111090;28;20103;-35
2021/09/22 00:40:15;;;;;;;15.73;12.77;;;12.90;99.90;;;;;;5110489;28;20107;-40
2021/09/22 00:42:40;;;;;;;15.82;12.27;;;12.90;99.90;;;;;;5111337;28;20120;-32
2021/09/22 00:45:12;;;;;;;16.52;12.70;;;12.90;99.90;;;;;;5111413;28;20482;-38
2021/09/22 00:47:38;;;;;;;15.30;12.45;;;12.80;99.90;;;;;;5110088;28;20023;-40
2021/09/22 00:50:07;;;;;;;15.38;12.45;;;12.80;99.90;;;;;;5111138;28;20092;-40
2021/09/22 00:52:33;;;;;;;16.83;12.68;;;12.80;99.90;;;;;;5110881;28;20059;-34
2021/09/22 00:54:59;;;;;;;16.23;13.23;;;12.80;99.90;;;;;;5110203;28;20489;-37
2021/09/22 00:57:25;;;;;;;16.42;13.02;;;12.80;99.90;;;;;;5110223;28;20580;-33
2021/09/22 00:59:53;;;;;;;16.88;13.13;;;12.70;99.90;;;;;;5110025;28;20028;-38
2021/09/22 01:02:19;;;;;;;18.38;12.90;;;12.70;99.90;;;;;;5108226;28;20132;-39
2021/09/22 01:04:45;;;;;;;18.23;13.90;;;12.70;99.90;;;;;;5110378;28;20106;-38
2021/09/22 01:07:13;;;;;;;16.38;13.93;;;12.70;99.90;;;;;;5105754;28;20103;-40
2021/09/22 01:09:39;;;;;;;17.48;13.60;;;12.70;99.90;;;;;;5108587;28;20047;-35
2021/09/22 01:12:06;;;;;;;17.27;13.55;;;12.60;99.90;;;;;;5109436;28;20516;-38
2021/09/22 01:14:31;;;;;;;17.55;12.82;;;12.60;99.90;;;;;;5108613;28;20061;-34
2021/09/22 01:16:57;;;;;;;16.25;12.95;;;12.60;99.90;;;;;;5108460;28;20039;-37
2021/09/22 01:19:23;;;;;;;16.48;13.52;;;12.60;99.90;;;;;;5109995;28;20486;-39
2021/09/22 01:21:53;;;;;;;15.73;13.15;;;12.60;99.90;;;;;;5110228;28;20023;-36
2021/09/22 01:24:19;;;;;;;14.75;12.70;;;12.60;99.90;;;;;;5109991;28;20377;-38
2021/09/22 01:26:46;;;;;;;15.02;12.80;;;12.50;99.90;;;;;;5110418;28;20023;-37
2021/09/22 01:29:16;;;;;;;16.48;13.52;;;12.50;99.90;;;;;;5110375;28;20035;-38
2021/09/22 01:31:42;;;;;;;14.32;12.40;;;12.50;99.90;;;;;;5110065;28;20043;-34
2021/09/22 01:34:10;;;;;;;16.90;13.50;;;12.50;99.90;;;;;;5110606;28;20135;-36
2021/09/22 01:36:36;;;;;;;17.85;12.77;;;12.40;99.90;;;;;;5109766;28;20020;-36
2021/09/22 01:39:04;;;;;;;16.73;13.68;;;12.40;99.90;;;;;;5110600;28;20027;-39
2021/09/22 01:41:29;;;;;;;16.73;13.63;;;12.40;99.90;;;;;;5109475;28;20382;-40
2021/09/22 01:43:55;;;;;;;18.52;14.40;;;12.40;99.90;;;;;;5109710;28;20027;-38
2021/09/22 01:46:24;;;;;;;18.20;13.65;;;12.40;99.90;;;;;;5109260;28;20035;-35
2021/09/22 01:48:50;;;;;;;19.35;14.35;;;12.40;99.90;;;;;;5102992;28;20042;-35
2021/09/22 01:51:15;;;;;;;16.27;13.15;;;12.30;99.90;;;;;;5110157;28;20478;-39
2021/09/22 01:53:41;;;;;;;16.85;14.10;;;12.30;99.90;;;;;;5109751;28;20020;-38
2021/09/22 01:56:09;;;;;;;16.00;13.85;;;12.30;99.90;;;;;;5110303;28;20027;-40
2021/09/22 01:58:35;;;;;;;15.50;13.05;;;12.30;99.90;;;;;;5109034;28;20023;-37
2021/09/22 02:01:03;;;;;;;17.42;13.85;;;12.30;99.90;;;;;;5110136;28;20076;-39
2021/09/22 02:03:29;;;;;;;17.17;13.90;;;12.30;99.90;;;;;;5109280;28;20502;-39
2021/09/22 02:05:58;;;;;;;16.30;13.68;;;12.20;99.90;;;;;;5108315;28;20035;-36
2021/09/22 02:08:23;;;;;;;16.75;14.05;;;12.20;99.90;;;;;;5108062;28;20088;-33
2021/09/22 02:10:49;;;;;;;17.55;13.25;;;12.20;99.90;;;;;;5108564;28;20152;-36
2021/09/22 02:13:15;;;;;;;18.00;14.30;;;12.10;99.90;;;;;;5107632;28;20102;-34
2021/09/22 02:15:40;;;;;;;18.63;14.43;;;12.10;99.90;;;;;;5108465;28;20023;-38
2021/09/22 02:18:08;;;;;;;16.10;13.57;;;12.10;99.90;;;;;;5108330;28;20070;-38
2021/09/22 02:20:39;;;;;;;17.55;14.80;;;12.10;99.90;;;;;;5108849;28;20019;-35
2021/09/22 02:23:05;;;;;;;17.03;14.37;;;12.10;99.90;;;;;;5108812;28;20034;-34
2021/09/22 02:25:31;;;;;;;19.92;15.20;;;12.10;99.90;;;;;;5107368;28;20028;-32
2021/09/22 02:27:57;;;;;;;20.02;15.65;;;12.10;99.90;;;;;;5109751;28;20042;-33
2021/09/22 02:30:24;;;;;;;20.98;16.30;;;12.10;99.90;;;;;;5112202;28;20024;-36
2021/09/22 02:32:50;;;;;;;22.98;17.00;;;12.00;99.90;;;;;;5113290;28;20059;-37
2021/09/22 02:35:16;;;;;;;20.50;16.13;;;12.00;99.90;;;;;;5113607;28;20050;-40
2021/09/22 02:37:42;;;;;;;20.35;16.25;;;12.10;99.90;;;;;;5113695;28;20020;-33
2021/09/22 02:40:15;;;;;;;20.83;15.85;;;12.10;99.90;;;;;;5110225;28;20043;-37
2021/09/22 02:42:41;;;;;;;20.55;16.50;;;12.10;99.90;;;;;;5113132;28;20020;-39
2021/09/22 02:45:08;;;;;;;20.25;15.98;;;12.10;99.90;;;;;;5113609;28;20538;-34
2021/09/22 02:47:33;;;;;;;20.73;16.50;;;12.00;99.90;;;;;;5112870;28;20495;-37
2021/09/22 02:49:59;;;;;;;19.83;16.55;;;12.00;99.90;;;;;;5113386;28;20498;-39
2021/09/22 02:52:24;;;;;;;21.50;17.63;;;12.10;99.90;;;;;;5113107;28;20031;-39
2021/09/22 02:54:50;;;;;;;22.25;17.67;;;12.10;99.90;;;;;;5113244;28;20031;-36
2021/09/22 02:57:18;;;;;;;23.45;17.13;;;12.00;99.90;;;;;;5113066;28;20023;-38
2021/09/22 02:59:43;;;;;;;21.27;17.60;;;12.00;99.90;;;;;;5113384;28;20060;-39
2021/09/22 03:02:15;;;;;;;22.10;17.45;;;12.00;99.90;;;;;;5113523;28;20058;-34
2021/09/22 03:04:43;;;;;;;22.73;17.77;;;12.00;99.90;;;;;;5111827;28;20482;-33
2021/09/22 03:07:18;;;;;;;22.77;17.70;;;12.00;99.90;;;;;;5111454;28;20028;-35
2021/09/22 03:09:43;;;;;;;24.02;18.00;;;11.90;99.90;;;;;;5113019;28;20024;-39
2021/09/22 03:12:09;;;;;;;22.30;18.05;;;11.90;99.90;;;;;;5112367;28;20028;-39
2021/09/22 03:14:35;;;;;;;24.65;18.52;;;11.90;99.90;;;;;;5112131;28;20459;-37
2021/09/22 03:17:00;;;;;;;21.52;17.85;;;11.90;99.90;;;;;;5113110;28;20156;-40
2021/09/22 03:19:26;;;;;;;21.85;17.63;;;11.90;99.90;;;;;;5111347;28;20457;-39
2021/09/22 03:21:51;;;;;;;21.98;17.75;;;11.90;99.90;;;;;;5112526;28;20026;-36
2021/09/22 03:24:17;;;;;;;23.52;18.20;;;11.80;99.90;;;;;;5112900;28;20031;-40
2021/09/22 03:26:42;;;;;;;21.52;17.02;;;11.80;99.90;;;;;;5112778;28;20030;-36
2021/09/22 03:29:08;;;;;;;23.00;17.65;;;11.80;99.90;;;;;;5112933;28;20028;-36
2021/09/22 03:31:33;;;;;;;23.35;18.17;;;11.80;99.90;;;;;;5111703;28;20036;-36
2021/09/22 03:33:59;;;;;;;21.30;17.67;;;11.80;99.90;;;;;;5113020;28;20012;-39
2021/09/22 03:36:27;;;;;;;22.70;17.95;;;11.80;99.90;;;;;;5111781;28;20016;-38
2021/09/22 03:38:53;;;;;;;22.75;17.63;;;11.70;99.90;;;;;;5112660;28;20563;-37
2021/09/22 03:41:18;;;;;;;23.58;18.20;;;11.70;99.90;;;;;;5110897;28;20455;-35
2021/09/22 03:43:44;;;;;;;23.73;18.33;;;11.70;99.90;;;;;;5111470;28;20032;-37
2021/09/22 03:46:10;;;;;;;23.33;18.63;;;11.70;99.90;;;;;;5112417;28;20073;-40
2021/09/22 03:48:35;;;;;;;25.10;18.38;;;11.70;99.90;;;;;;5112459;28;20047;-38
2021/09/22 03:51:01;;;;;;;24.70;19.08;;;11.70;99.90;;;;;;5111536;28;20035;-39
2021/09/22 03:53:26;;;;;;;27.13;19.10;;;11.70;99.90;;;;;;5111405;28;20031;-37
2021/09/22 03:55:52;;;;;;;24.45;18.55;;;11.70;99.90;;;;;;5111697;28;20107;-40
2021/09/22 03:58:17;;;;;;;23.08;18.50;;;11.60;99.90;;;;;;5111435;28;20082;-35
2021/09/22 04:00:43;;;;;;;24.80;18.92;;;11.60;99.90;;;;;;5112536;28;20034;-37
2021/09/22 04:03:08;;;;;;;25.67;18.73;;;11.60;99.90;;;;;;5112180;28;20034;-36
2021/09/22 04:05:34;;;;;;;22.02;18.00;;;11.60;99.90;;;;;;5111287;28;20016;-39
2021/09/22 04:08:00;;;;;;;25.63;19.20;;;11.60;99.90;;;;;;5111795;28;20028;-38
2021/09/22 04:10:26;;;;;;;25.60;18.70;;;11.60;99.90;;;;;;5110385;28;20047;-37
2021/09/22 04:12:54;;;;;;;23.55;18.50;;;11.50;99.90;;;;;;5111986;28;20059;-36
2021/09/22 04:15:19;;;;;;;24.05;18.92;;;11.60;99.90;;;;;;5110737;28;20035;-37
2021/09/22 04:17:45;;;;;;;22.52;18.00;;;11.50;99.90;;;;;;5110921;28;20032;-32
2021/09/22 04:20:13;;;;;;;22.67;18.00;;;11.50;99.90;;;;;;5111696;28;20024;-33
2021/09/22 04:22:39;;;;;;;26.27;19.33;;;11.50;99.90;;;;;;5111852;28;20042;-37
2021/09/22 04:25:25;;;;;;;23.80;18.90;;;11.50;99.90;;;;;;5111807;28;20012;-36
2021/09/22 04:27:51;;;;;;;25.38;17.77;;;11.50;99.90;;;;;;5110906;28;20027;-40
2021/09/22 04:30:17;;;;;;;22.95;19.00;;;11.40;99.90;;;;;;5111513;28;20075;-36
2021/09/22 04:32:42;;;;;;;24.63;17.88;;;11.40;99.90;;;;;;5110332;28;20023;-32
2021/09/22 04:35:08;;;;;;;24.48;18.27;;;11.40;99.90;;;;;;5111952;28;20032;-35
2021/09/22 04:37:36;;;;;;;22.48;18.20;;;11.40;99.90;;;;;;5110517;28;20032;-33
2021/09/22 04:40:07;;;;;;;22.23;17.60;;;11.40;99.90;;;;;;5111517;28;20015;-34
2021/09/22 04:42:33;;;;;;;21.95;17.30;;;11.40;99.90;;;;;;5110845;28;20020;-37
2021/09/22 04:44:59;;;;;;;22.40;18.02;;;11.40;99.90;;;;;;5111053;28;20032;-37
2021/09/22 04:47:24;;;;;;;23.17;17.38;;;11.40;99.90;;;;;;5108909;28;20421;-34
2021/09/22 04:49:50;;;;;;;21.90;17.17;;;11.30;99.90;;;;;;5111274;28;20047;-37
2021/09/22 04:52:15;;;;;;;22.92;17.77;;;11.30;99.90;;;;;;5110277;28;20406;-37
2021/09/22 04:54:41;;;;;;;24.90;18.63;;;11.30;99.90;;;;;;5110435;28;20489;-38
2021/09/22 04:57:06;;;;;;;22.48;17.35;;;11.30;99.90;;;;;;5110399;28;20114;-39
2021/09/22 04:59:32;;;;;;;22.25;17.77;;;11.30;99.90;;;;;;5110263;28;20026;-37
2021/09/22 05:01:57;;;;;;;23.27;17.77;;;11.20;99.90;;;;;;5110749;28;20032;-37
2021/09/22 05:04:23;;;;;;;21.17;17.77;;;11.20;99.90;;;;;;5109811;28;20084;-35
2021/09/22 05:06:48;;;;;;;22.63;17.33;;;11.20;99.90;;;;;;5110427;28;20023;-39
2021/09/22 05:09:17;;;;;;;22.75;17.42;;;11.20;99.90;;;;;;5110086;28;20459;-36
2021/09/22 05:11:49;;;;;;;20.92;16.88;;;11.30;99.90;;;;;;5111044;28;20040;-33
2021/09/22 05:14:14;;;;;;;22.17;17.40;;;11.20;99.90;;;;;;5110395;28;20046;-35
2021/09/22 05:16:43;;;;;;;24.70;17.88;;;11.30;99.90;;;;;;5110071;28;20056;-40
2021/09/22 05:19:08;;;;;;;22.58;18.23;;;11.20;99.90;;;;;;5110651;28;20026;-37
2021/09/22 05:21:37;;;;;;;21.92;16.48;;;11.30;99.90;;;;;;5109326;28;20019;-35
2021/09/22 05:24:03;;;;;;;22.05;16.88;;;11.20;99.90;;;;;;5110417;28;20421;-39
2021/09/22 05:26:28;;;;;;;41.72;17.13;;;11.30;99.90;;;;;;5110212;28;20019;-38
2021/09/22 05:28:54;;;;;;;22.75;15.38;;;11.30;99.90;;;;;;5110091;28;20032;-39
2021/09/22 05:31:20;;;;;;;29.88;13.32;;;11.30;99.90;;;;;;5109299;28;20410;-40
2021/09/22 05:33:48;;;;;;;19.70;13.50;;;11.40;99.90;;;;;;5109866;28;20479;-36
2021/09/22 05:36:16;;;;;;;29.65;12.77;;;11.40;99.90;;;;;;5110100;28;20084;-37
2021/09/22 05:38:42;;;;;;;24.83;12.95;;;11.30;99.90;;;;;;5105939;28;20444;-35
2021/09/22 05:41:07;;;;;;;21.40;10.65;;;11.40;99.90;;;;;;5105899;28;20119;-37
2021/09/22 05:43:33;;;;;;;29.33;10.25;;;11.40;99.90;;;;;;5100967;28;20395;-39
2021/09/22 05:45:58;;;;;;;25.52;12.18;;;11.30;99.90;;;;;;5103669;28;20080;-38
2021/09/22 05:48:24;;;;;;;21.13;12.18;;;11.20;99.90;;;;;;5105967;28;20011;-34
2021/09/22 05:50:49;;;;;;;20.58;12.77;;;11.20;99.90;;;;;;5108377;28;20027;-38
2021/09/22 05:53:18;;;;;;;17.75;13.63;;;11.20;99.90;;;;;;5109044;28;20019;-35
2021/09/22 05:55:43;;;;;;;16.08;13.13;;;11.20;99.90;;;;;;5109022;28;20383;-39
2021/09/22 05:58:09;;;;;;;18.77;14.95;;;11.20;99.90;;;;;;5108294;28;20015;-37
2021/09/22 06:00:34;;;;;;;19.20;14.82;;;11.30;99.90;;;;;;5108545;28;20050;-37
2021/09/22 06:03:06;;;;;;;18.80;15.10;;;11.30;99.90;;;;;;5108374;28;20024;-39
2021/09/22 06:05:32;;;;;;;18.58;14.77;;;11.30;99.90;;;;;;5109820;28;20008;-39
2021/09/22 06:07:57;;;;;;;21.17;15.57;;;11.30;99.90;;;;;;5112964;28;20024;-35
2021/09/22 06:10:26;;;;;;;21.90;16.23;;;11.30;99.90;;;;;;5112025;28;20382;-39
2021/09/22 06:12:52;;;;;;;21.20;15.45;;;11.30;99.90;;;;;;5112917;28;20088;-31
2021/09/22 06:15:20;;;;;;;19.90;15.50;;;11.30;99.90;;;;;;5113330;28;20024;-33
2021/09/22 06:17:46;;;;;;;18.60;15.13;;;11.30;99.90;;;;;;5111563;28;20046;-37
2021/09/22 06:20:12;;;;;;;18.55;14.50;;;11.40;99.90;;;;;;5112801;28;20027;-37
2021/09/22 06:22:37;;;;;;;21.00;16.85;;;11.40;99.90;;;;;;5111867;28;20027;-37
2021/09/22 06:25:14;;;;;;;22.40;16.60;;;11.40;99.90;;;;;;5112621;28;20036;-36
2021/09/22 06:27:42;;;;;;;20.77;16.70;;;11.40;99.90;;;;;;5112959;28;20094;-36
2021/09/22 06:30:11;;;;;;;21.35;16.98;;;11.40;99.90;;;;;;5096971;28;20119;-34
2021/09/22 06:32:38;;;;;;;21.13;17.85;;;11.40;99.90;;;;;;5105024;28;20031;-35
2021/09/22 06:35:05;;;;;;;21.20;17.00;;;11.40;99.90;;;;;;5113359;28;20031;-36
2021/09/22 06:37:31;;;;;;;20.27;16.42;;;11.40;99.90;;;;;;5112209;28;20392;-39
2021/09/22 06:39:59;;;;;;;20.60;16.80;;;11.50;99.90;;;;;;5112861;28;20110;-35
2021/09/22 06:42:24;;;;;;;23.00;17.77;;;11.50;99.90;;;;;;5112613;28;20474;-32
2021/09/22 06:44:50;;;;;;;21.83;16.73;;;11.50;99.90;;;;;;5113476;28;20026;-39
2021/09/22 06:47:15;;;;;;;22.38;17.63;;;11.60;99.90;;;;;;5111930;28;20486;-37
2021/09/22 06:49:44;;;;;;;23.42;17.58;;;11.60;99.90;;;;;;5112882;28;20402;-37
2021/09/22 06:52:09;;;;;;;22.95;17.27;;;11.60;99.90;;;;;;5096066;28;20035;-38
2021/09/22 06:54:35;;;;;;;21.95;16.45;;;11.60;99.90;;;;;;5111321;28;20034;-41
2021/09/22 06:57:03;;;;;;;20.40;16.33;;;11.70;99.90;;;;;;5090427;28;20130;-37
2021/09/22 06:59:29;;;;;;;20.70;16.60;;;11.70;99.90;;;;;;5106637;28;20024;-38
2021/09/22 07:01:57;;;;;;;26.17;18.05;;;11.80;99.90;;;;;;5110507;28;20115;-40
2021/09/22 07:04:23;;;;;;;23.48;17.95;;;11.80;99.90;;;;;;5105141;28;20023;-37
2021/09/22 07:06:51;;;;;;;24.52;18.02;;;11.90;99.90;;;;;;5112961;28;20047;-38
2021/09/22 07:09:16;;;;;;;24.05;18.33;;;11.90;99.90;;;;;;5111978;28;20439;-37
2021/09/22 07:11:42;;;;;;;21.65;17.45;;;12.00;99.90;;;;;;5112064;28;20550;-38
2021/09/22 07:14:07;;;;;;;26.30;19.05;;;12.00;99.90;;;;;;5112535;28;20019;-38
2021/09/22 07:16:33;;;;;;;25.00;18.65;;;12.00;99.90;;;;;;5111647;28;20052;-37
2021/09/22 07:18:59;;;;;;;23.20;18.05;;;12.10;99.90;;;;;;5112623;28;20102;-40
2021/09/22 07:21:25;;;;;;;25.88;18.75;;;12.10;99.90;;;;;;5112083;28;20065;-37
2021/09/22 07:23:50;;;;;;;22.38;16.20;;;12.10;99.90;;;;;;5112208;28;20020;-37
2021/09/22 07:26:19;;;;;;;22.60;17.55;;;12.20;99.90;;;;;;5112260;28;20028;-37
2021/09/22 07:28:44;;;;;;;23.60;18.27;;;12.20;99.90;;;;;;5112120;28;20020;-39
2021/09/22 07:31:10;;;;;;;24.25;17.92;;;12.20;99.90;;;;;;5113410;28;20042;-37
2021/09/22 07:33:36;;;;;;;22.77;17.42;;;12.20;99.90;;;;;;5112041;28;20031;-39
2021/09/22 07:36:03;;;;;;;26.75;19.33;;;12.30;99.90;;;;;;5110408;28;20027;-37
2021/09/22 07:38:28;;;;;;;19.02;15.18;;;12.30;99.90;;;;;;5112097;28;20007;-37
2021/09/22 07:40:57;;;;;;;24.85;18.25;;;12.40;99.90;;;;;;5112709;28;20168;-40
2021/09/22 07:43:23;;;;;;;27.00;19.52;;;12.40;99.90;;;;;;5111163;28;20524;-39
2021/09/22 07:45:49;;;;;;;22.73;17.90;;;12.50;99.90;;;;;;5110255;28;20065;-38
2021/09/22 07:48:14;;;;;;;23.60;18.13;;;12.50;99.90;;;;;;5112230;28;20024;-39
2021/09/22 07:50:40;;;;;;;24.73;18.77;;;12.50;99.90;;;;;;5111146;28;20039;-37
2021/09/22 07:53:05;;;;;;;25.70;17.70;;;12.60;99.90;;;;;;5112519;28;20030;-34
2021/09/22 07:55:31;;;;;;;23.08;18.55;;;12.60;99.90;;;;;;5085951;28;20030;-34
2021/09/22 07:57:57;;;;;;;22.38;17.60;;;12.70;99.90;;;;;;5112755;28;20535;-36
2021/09/22 08:00:25;;;;;;;25.48;18.73;;;12.70;99.90;;;;;;5111098;28;20034;-37
2021/09/22 08:03:11;;;;;;;23.45;17.58;;;12.80;99.90;;;;;;5112306;28;20020;-37
2021/09/22 08:05:40;;;;;;;21.25;17.00;;;12.80;99.90;;;;;;5111483;28;20089;-36
2021/09/22 08:08:07;;;;;;;24.52;19.58;;;12.90;99.90;;;;;;5101330;28;20025;-38
2021/09/22 08:10:40;;;;;;;25.83;19.05;;;13.00;99.90;;;;;;5077864;28;20035;-37
2021/09/22 08:13:05;;;;;;;26.38;18.02;;;13.00;99.90;;;;;;5097336;28;20099;-37
2021/09/22 08:15:40;;;;;;;22.73;17.35;;;13.10;99.90;;;;;;5103145;28;20115;-39
2021/09/22 08:18:06;;;;;;;21.40;17.13;;;13.10;99.90;;;;;;5111494;28;20035;-39
2021/09/22 08:20:31;;;;;;;29.35;19.92;;;13.20;99.90;;;;;;5111233;28;20103;-40
2021/09/22 08:22:57;;;;;;;24.98;19.63;;;13.30;99.90;;;;;;5112262;28;20442;-40
2021/09/22 08:25:25;;;;;;;24.05;17.83;;;13.30;99.90;;;;;;5108419;28;20023;-38
2021/09/22 08:27:51;;;;;;;25.77;18.90;;;13.40;99.90;;;;;;5111144;28;20118;-37
2021/09/22 08:30:17;;;;;;;25.35;19.42;;;13.40;99.90;;;;;;5111236;28;20102;-36
2021/09/22 08:32:43;;;;;;;30.10;23.42;;;13.50;99.90;;;;;;5111411;28;20012;-37
2021/09/22 08:35:09;;;;;;;25.25;20.00;;;13.60;99.90;;;;;;5111373;28;20544;-38
2021/09/22 08:37:35;;;;;;;26.92;19.67;;;13.60;99.90;;;;;;5111585;28;20020;-37
2021/09/22 08:40:01;;;;;;;22.73;18.60;;;13.70;99.90;;;;;;5111064;28;20498;-36
2021/09/22 08:42:26;;;;;;;23.40;18.63;;;13.80;99.90;;;;;;5109791;28;20081;-37
2021/09/22 08:44:53;;;;;;;22.35;17.67;;;13.90;99.90;;;;;;5111090;28;20020;-36
2021/09/22 08:47:22;;;;;;;23.40;17.88;;;13.90;99.90;;;;;;5111156;28;20020;-37
2021/09/22 08:49:50;;;;;;;23.10;17.70;;;14.00;99.90;;;;;;5111036;28;20115;-39
2021/09/22 08:52:15;;;;;;;25.55;18.33;;;14.10;99.90;;;;;;5110886;28;20045;-39
2021/09/22 08:54:41;;;;;;;20.13;16.35;;;14.20;99.90;;;;;;5111286;28;20011;-40
2021/09/22 08:57:07;;;;;;;23.00;17.00;;;14.20;99.90;;;;;;5111001;28;20016;-40
2021/09/22 08:59:32;;;;;;;25.30;17.67;;;14.30;99.90;;;;;;5110394;28;20371;-39
2021/09/22 09:02:16;;;;;;;25.02;18.23;;;14.30;99.90;;;;;;5110607;28;20019;-37
2021/09/22 09:04:44;;;;;;;23.23;17.60;;;14.30;99.90;;;;;;5102835;28;20016;-40
2021/09/22 09:07:11;;;;;;;19.40;14.68;;;14.30;99.90;;;;;;5110534;28;20028;-39
2021/09/22 09:09:39;;;;;;;29.48;18.10;;;14.40;99.90;;;;;;5111120;28;20016;-38
2021/09/22 09:12:24;;;;;;;20.65;16.92;;;14.50;99.90;;;;;;5110692;28;20023;-38
2021/09/22 09:14:55;;;;;;;18.90;14.98;;;14.50;99.90;;;;;;5110037;28;20054;-35
2021/09/22 09:17:52;;;;;;;21.13;16.02;;;14.60;99.90;;;;;;5104417;28;20031;-35
2021/09/22 09:20:23;;;;;;;19.92;15.05;;;14.60;99.90;;;;;;5047446;28;20041;-37
2021/09/22 09:23:22;;;;;;;21.00;15.77;;;14.70;99.90;;;;;;5109387;28;20051;-39
2021/09/22 09:26:04;;;;;;;19.10;14.30;;;14.70;99.90;;;;;;5110752;28;20020;-38
2021/09/22 09:28:37;;;;;;;17.30;13.40;;;14.80;99.90;;;;;;5109371;28;20016;-37
2021/09/22 09:31:07;;;;;;;15.75;12.80;;;14.80;99.90;;;;;;5081090;28;20394;-38
2021/09/22 09:33:39;;;;;;;17.88;14.65;;;14.90;99.90;;;;;;5109656;28;20378;-40
2021/09/22 09:36:23;;;;;;;18.17;14.30;;;15.00;99.90;;;;;;5109687;28;20080;-38
2021/09/22 09:39:25;;;;;;;18.50;13.95;;;15.00;99.90;;;;;;5102361;28;20030;-39
2021/09/22 09:41:56;;;;;;;16.35;11.95;;;15.10;99.90;;;;;;5069542;28;20121;-37
2021/09/22 09:44:37;;;;;;;17.63;14.85;;;15.30;99.90;;;;;;5106918;28;20023;-34
2021/09/22 09:47:12;;;;;;;20.80;16.50;;;15.30;99.90;;;;;;5110712;28;20162;-40
2021/09/22 09:49:40;;;;;;;20.02;15.80;;;15.50;99.90;;;;;;5109348;28;20379;-32
2021/09/22 09:52:05;;;;;;;15.82;12.93;;;15.50;99.90;;;;;;5110127;28;20065;-35
2021/09/22 09:54:33;;;;;;;18.45;14.25;;;15.60;99.90;;;;;;5109254;28;20101;-40
2021/09/22 09:57:17;;;;;;;14.75;12.15;;;15.70;99.90;;;;;;5109795;28;20680;-38
2021/09/22 09:59:48;;;;;;;15.63;13.07;;;15.80;99.90;;;;;;5110114;28;20107;-40
2021/09/22 10:02:31;;;;;;;18.95;14.50;;;15.80;99.90;;;;;;5109432;28;20064;-39
2021/09/22 10:04:58;;;;;;;17.08;13.38;;;15.90;99.90;;;;;;5110169;28;20031;-36
2021/09/22 10:07:24;;;;;;;18.50;13.77;;;16.00;99.90;;;;;;5110038;28;20024;-39
2021/09/22 10:09:51;;;;;;;21.02;15.02;;;16.00;99.90;;;;;;5109599;28;20017;-34
2021/09/22 10:12:17;;;;;;;17.25;12.98;;;16.10;99.90;;;;;;5109775;28;20031;-38
2021/09/22 10:14:49;;;;;;;17.48;13.38;;;16.10;99.90;;;;;;5110115;28;20023;-41
2021/09/22 10:17:16;;;;;;;19.27;14.43;;;16.20;99.90;;;;;;5108819;28;20055;-35
2021/09/22 10:19:46;;;;;;;21.27;15.20;;;16.20;99.90;;;;;;5107919;28;20027;-36
2021/09/22 10:22:12;;;;;;;18.30;13.88;;;16.20;99.90;;;;;;5087359;28;20020;-33
2021/09/22 10:24:39;;;;;;;19.25;13.75;;;16.30;99.90;;;;;;5097966;28;20111;-38
2021/09/22 10:27:05;;;;;;;16.48;13.52;;;16.30;99.90;;;;;;5109310;28;20016;-36
2021/09/22 10:29:37;;;;;;;17.38;13.30;;;16.40;99.90;;;;;;5108959;28;20125;-36
2021/09/22 10:32:04;;;;;;;14.18;11.55;;;16.40;99.90;;;;;;5109127;28;20040;-35
2021/09/22 10:34:36;;;;;;;16.65;12.38;;;16.50;99.90;;;;;;5108602;28;20026;-37
2021/09/22 10:37:32;;;;;;;19.87;14.50;;;16.50;99.90;;;;;;5109326;28;20055;-38
2021/09/22 10:39:58;;;;;;;19.17;14.57;;;16.60;99.90;;;;;;5108622;28;20465;-37
2021/09/22 10:42:31;;;;;;;17.67;15.13;;;16.70;99.90;;;;;;5108733;28;20066;-36
2021/09/22 10:45:19;;;;;;;18.08;14.30;;;16.70;99.90;;;;;;5109190;28;20483;-35
2021/09/22 10:47:46;;;;;;;17.60;12.90;;;16.80;99.90;;;;;;5078967;28;20086;-39
2021/09/22 10:50:33;;;;;;;13.75;10.45;;;16.80;99.90;;;;;;5086283;28;20364;-40
2021/09/22 10:52:59;;;;;;;13.05;10.60;;;16.90;99.90;;;;;;5084659;28;20562;-37
2021/09/22 10:55:24;;;;;;;15.80;11.38;;;16.90;99.90;;;;;;5089348;28;20490;-40
2021/09/22 10:57:50;;;;;;;16.98;13.05;;;16.90;99.90;;;;;;5102752;28;20108;-38
2021/09/22 11:00:18;;;;;;;14.65;11.43;;;17.00;99.90;;;;;;5110174;28;20053;-38
2021/09/22 11:02:49;;;;;;;15.00;11.35;;;17.00;99.90;;;;;;5110862;28;20032;-40
2021/09/22 11:05:27;;;;;;;14.77;11.80;;;17.10;99.90;;;;;;5110375;28;20023;-35
2021/09/22 11:08:07;;;;;;;14.75;11.38;;;17.20;99.90;;;;;;5106452;28;20379;-37
2021/09/22 11:10:42;;;;;;;12.55;11.00;;;17.20;99.90;;;;;;5110782;28;20055;-38
2021/09/22 11:13:23;;;;;;;17.20;11.35;;;17.30;99.90;;;;;;5089539;28;20600;-39
2021/09/22 11:15:49;;;;;;;18.98;15.10;;;17.40;99.90;;;;;;5112405;28;20045;-37
2021/09/22 11:18:16;;;;;;;18.67;14.57;;;17.50;99.90;;;;;;5112562;28;20027;-36
2021/09/22 11:20:50;;;;;;;17.70;12.57;;;17.60;99.70;;;;;;5112195;28;20027;-34
2021/09/22 11:23:16;;;;;;;16.88;12.45;;;17.60;99.60;;;;;;5112149;28;20427;-36
2021/09/22 11:25:41;;;;;;;15.80;12.75;;;17.70;99.50;;;;;;5112236;28;20090;-38
2021/09/22 11:28:08;;;;;;;13.20;10.20;;;17.80;99.40;;;;;;5112221;28;20028;-35
2021/09/22 11:30:34;;;;;;;14.23;11.70;;;17.80;99.40;;;;;;5112102;28;20661;-40
2021/09/22 11:33:02;;;;;;;18.92;12.38;;;17.90;99.30;;;;;;5112231;28;20109;-38
2021/09/22 11:35:31;;;;;;;13.38;11.38;;;17.90;99.20;;;;;;5111935;28;20122;-35
2021/09/22 11:37:59;;;;;;;14.35;9.88;;;18.00;99.20;;;;;;5112174;28;20068;-38
2021/09/22 11:40:28;;;;;;;13.55;9.80;;;18.00;99.10;;;;;;5112230;28;20054;-39
2021/09/22 11:43:08;;;;;;;12.45;9.93;;;18.00;99.10;;;;;;5106288;28;20032;-40
2021/09/22 11:45:39;;;;;;;13.73;9.90;;;18.00;98.80;;;;;;5072525;28;20498;-43
2021/09/22 11:48:06;;;;;;;14.05;9.88;;;18.10;98.90;;;;;;5101393;28;20032;-42
2021/09/22 11:50:35;;;;;;;11.70;8.25;;;18.10;98.70;;;;;;5112097;28;20045;-42
2021/09/22 11:53:07;;;;;;;12.20;8.70;;;18.20;98.70;;;;;;5111665;28;20026;-43
2021/09/22 11:55:33;;;;;;;;;;;18.20;98.60;;;;;;5111926;28;20374;-41
2021/09/22 11:58:07;;;;;;;11.15;8.50;;;18.20;98.50;;;;;;5112251;28;20355;-44
2021/09/22 12:00:33;;;;;;;9.38;8.10;;;18.20;98.30;;;;;;5111631;28;20040;-41
2021/09/22 12:02:59;;;;;;;10.95;8.40;;;18.30;98.20;;;;;;5109657;28;20015;-43
2021/09/22 12:05:25;;;;;;;16.45;10.02;;;18.30;98.10;;;;;;5111778;28;20034;-44
2021/09/22 12:07:55;;;;;;;11.63;8.27;;;18.40;98.00;;;;;;5111840;28;20106;-41
2021/09/22 12:10:23;;;;;;;11.15;8.77;;;18.40;98.10;;;;;;5111402;28;20027;-41
2021/09/22 12:12:48;;;;;;;8.88;7.88;;;18.40;98.10;;;;;;5111748;28;20024;-41
2021/09/22 12:15:14;;;;;;;11.05;7.97;;;18.40;98.10;;;;;;5111448;28;20023;-42
2021/09/22 12:17:44;;;;;;;11.20;7.95;;;18.50;98.10;;;;;;5110585;28;20581;-45
2021/09/22 12:20:16;;;;;;;10.65;8.98;;;18.50;97.90;;;;;;5111660;28;20475;-40
2021/09/22 12:22:43;;;;;;;13.20;8.85;;;18.50;98.00;;;;;;5111507;28;20019;-42
2021/09/22 12:25:10;;;;;;;10.75;8.05;;;18.50;97.70;;;;;;5111011;28;20020;-44
2021/09/22 12:27:36;;;;;;;13.38;9.57;;;18.50;97.60;;;;;;5111468;28;20543;-44
2021/09/22 12:30:11;;;;;;;11.30;8.07;;;18.60;97.30;;;;;;5110219;28;20019;-43
2021/09/22 12:32:51;;;;;;;9.68;7.32;;;18.60;97.10;;;;;;5110733;28;20483;-44